createdAt,value
2022-10-31T00:01:27.659Z,13.50
2022-10-31T00:03:55.699Z,13.60
2022-10-31T00:06:23.929Z,13.50
2022-10-31T00:08:55.293Z,13.50
2022-10-31T00:11:26.268Z,13.50
2022-10-31T00:13:54.578Z,13.40
2022-10-31T00:16:25.079Z,13.40
2022-10-31T00:18:53.669Z,13.40
2022-10-31T00:21:22.275Z,13.40
2022-10-31T00:23:50.114Z,13.30
2022-10-31T00:26:18.276Z,13.30
2022-10-31T00:28:47.630Z,13.30
2022-10-31T00:31:15.947Z,13.30
2022-10-31T00:33:43.918Z,13.30
2022-10-31T00:36:15.569Z,13.30
2022-10-31T00:38:43.609Z,13.30
2022-10-31T00:41:11.703Z,13.30
2022-10-31T00:43:39.694Z,13.30
2022-10-31T00:46:08.837Z,13.20
2022-10-31T00:48:36.682Z,13.20
2022-10-31T00:51:04.686Z,13.20
2022-10-31T00:53:32.551Z,13.20
2022-10-31T00:56:00.400Z,13.20
2022-10-31T00:58:28.243Z,13.20
2022-10-31T01:00:56.886Z,13.20
2022-10-31T01:03:28.391Z,13.10
2022-10-31T01:06:01.071Z,13.10
2022-10-31T01:08:29.337Z,13.10
2022-10-31T01:11:02.339Z,13.10
2022-10-31T01:13:30.192Z,13.10
2022-10-31T01:15:59.047Z,13.10
2022-10-31T01:18:28.613Z,13.10
2022-10-31T01:21:01.330Z,13.00
2022-10-31T01:23:29.879Z,13.00
2022-10-31T01:26:06.548Z,13.00
2022-10-31T01:28:35.003Z,13.00
2022-10-31T01:31:04.034Z,12.90
2022-10-31T01:33:33.249Z,12.90
2022-10-31T01:36:01.238Z,12.90
2022-10-31T01:38:29.532Z,12.90
2022-10-31T01:40:57.397Z,12.90
2022-10-31T01:43:25.239Z,12.90
2022-10-31T01:45:56.081Z,12.90
2022-10-31T01:48:28.839Z,12.80
2022-10-31T01:50:58.095Z,12.80
2022-10-31T01:53:27.077Z,12.80
2022-10-31T01:55:55.297Z,12.70
2022-10-31T01:58:27.200Z,12.70
2022-10-31T02:01:01.821Z,12.70
2022-10-31T02:03:33.645Z,12.70
2022-10-31T02:06:05.204Z,12.70
2022-10-31T02:08:35.999Z,12.60
2022-10-31T02:11:03.844Z,12.60
2022-10-31T02:13:32.005Z,12.60
2022-10-31T02:16:00.944Z,12.60
2022-10-31T02:18:31.324Z,12.60
2022-10-31T02:21:13.418Z,12.60
2022-10-31T02:24:17.565Z,12.60
2022-10-31T02:27:14.452Z,12.60
2022-10-31T02:30:12.007Z,12.60
2022-10-31T02:32:53.453Z,12.50
2022-10-31T02:35:33.721Z,12.50
2022-10-31T02:38:07.183Z,12.50
2022-10-31T02:40:41.529Z,12.50
2022-10-31T02:45:52.331Z,12.50
2022-10-31T02:48:26.178Z,12.50
2022-10-31T02:50:57.938Z,12.50
2022-10-31T02:53:25.910Z,12.40
2022-10-31T02:56:00.114Z,12.50
2022-10-31T02:58:32.693Z,12.40
2022-10-31T03:01:32.547Z,12.40
2022-10-31T03:04:18.105Z,12.40
2022-10-31T03:06:51.516Z,12.40
2022-10-31T03:09:26.685Z,12.40
2022-10-31T03:12:00.173Z,12.40
2022-10-31T03:14:35.197Z,12.40
2022-10-31T03:17:08.017Z,12.40
2022-10-31T03:19:43.077Z,12.40
2022-10-31T03:22:19.400Z,12.40
2022-10-31T03:24:48.666Z,12.40
2022-10-31T03:27:20.667Z,12.30
2022-10-31T03:29:51.169Z,12.30
2022-10-31T03:32:23.026Z,12.30
2022-10-31T03:34:56.175Z,12.30
2022-10-31T03:37:26.737Z,12.30
2022-10-31T03:39:55.814Z,12.30
2022-10-31T03:42:26.775Z,12.30
2022-10-31T03:44:59.905Z,12.30
2022-10-31T03:47:28.259Z,12.30
2022-10-31T03:49:57.835Z,12.30
2022-10-31T03:52:29.901Z,12.30
2022-10-31T03:55:00.939Z,12.30
2022-10-31T03:57:34.838Z,12.20
2022-10-31T04:00:06.906Z,12.20
2022-10-31T04:02:40.045Z,12.20
2022-10-31T04:05:11.004Z,12.20
2022-10-31T04:07:43.281Z,12.20
2022-10-31T04:10:15.463Z,12.20
2022-10-31T04:12:47.532Z,12.20
2022-10-31T04:15:15.719Z,12.20
2022-10-31T04:17:46.100Z,12.10
2022-10-31T04:20:18.035Z,12.10
2022-10-31T04:22:45.906Z,12.10
2022-10-31T04:25:13.707Z,12.10
2022-10-31T04:27:41.546Z,12.10
2022-10-31T04:30:10.333Z,12.10
2022-10-31T04:32:38.135Z,12.10
2022-10-31T04:35:06.783Z,12.10
2022-10-31T04:37:36.018Z,12.10
2022-10-31T04:40:04.621Z,12.10
2022-10-31T04:42:33.052Z,12.10
2022-10-31T04:45:00.951Z,12.10
2022-10-31T04:47:28.725Z,12.10
2022-10-31T04:49:56.604Z,12.10
2022-10-31T04:52:24.437Z,12.10
2022-10-31T04:54:53.590Z,12.10
2022-10-31T04:57:21.408Z,12.00
2022-10-31T04:59:49.271Z,12.00
2022-10-31T05:02:17.247Z,12.00
2022-10-31T05:04:45.128Z,12.00
2022-10-31T05:07:12.971Z,12.00
2022-10-31T05:09:40.773Z,12.00
2022-10-31T05:12:09.963Z,12.00
2022-10-31T05:14:37.781Z,12.00
2022-10-31T05:17:05.621Z,12.00
2022-10-31T05:19:33.427Z,12.00
2022-10-31T05:22:01.271Z,11.90
2022-10-31T05:24:29.065Z,11.90
2022-10-31T05:26:56.940Z,11.90
2022-10-31T05:29:26.059Z,11.90
2022-10-31T05:31:53.894Z,11.90
2022-10-31T05:34:21.681Z,11.90
2022-10-31T05:36:49.523Z,11.90
2022-10-31T05:39:17.346Z,11.90
2022-10-31T05:41:45.129Z,11.90
2022-10-31T05:44:12.955Z,11.80
2022-10-31T05:46:42.093Z,11.80
2022-10-31T05:49:09.988Z,11.80
2022-10-31T05:51:37.822Z,11.80
2022-10-31T05:54:05.996Z,11.80
2022-10-31T05:56:33.818Z,11.80
2022-10-31T05:59:01.603Z,11.80
2022-10-31T06:01:29.493Z,11.80
2022-10-31T06:03:58.761Z,11.80
2022-10-31T06:06:26.528Z,11.70
2022-10-31T06:08:54.362Z,11.70
2022-10-31T06:11:22.265Z,11.70
2022-10-31T06:13:50.176Z,11.70
2022-10-31T06:16:18.044Z,11.70
2022-10-31T06:18:50.475Z,11.70
2022-10-31T06:21:27.884Z,11.70
2022-10-31T06:23:58.132Z,11.70
2022-10-31T06:26:26.406Z,11.70
2022-10-31T06:29:01.436Z,11.70
2022-10-31T06:31:32.495Z,11.70
2022-10-31T06:34:06.020Z,11.60
2022-10-31T06:36:35.231Z,11.70
2022-10-31T06:39:03.061Z,11.60
2022-10-31T06:41:30.848Z,11.60
2022-10-31T06:43:58.630Z,11.60
2022-10-31T06:46:26.522Z,11.60
2022-10-31T06:48:54.350Z,11.60
2022-10-31T06:51:22.141Z,11.60
2022-10-31T06:53:51.383Z,11.60
2022-10-31T06:56:21.963Z,11.60
2022-10-31T06:58:49.816Z,11.60
2022-10-31T07:01:17.728Z,11.60
2022-10-31T07:03:45.671Z,11.60
2022-10-31T07:06:13.437Z,11.60
2022-10-31T07:08:41.503Z,11.60
2022-10-31T07:11:10.676Z,11.60
2022-10-31T07:13:38.474Z,11.60
2022-10-31T07:16:08.167Z,11.60
2022-10-31T07:18:36.851Z,11.60
2022-10-31T07:21:05.228Z,11.60
2022-10-31T07:23:33.111Z,11.60
2022-10-31T07:26:01.389Z,11.60
2022-10-31T07:28:30.536Z,11.60
2022-10-31T07:30:59.487Z,11.60
2022-10-31T07:33:28.279Z,11.60
2022-10-31T07:35:56.109Z,11.60
2022-10-31T07:38:23.926Z,11.60
2022-10-31T07:40:53.640Z,11.60
2022-10-31T07:43:21.751Z,11.60
2022-10-31T07:45:54.951Z,11.60
2022-10-31T07:48:23.154Z,11.60
2022-10-31T07:50:51.044Z,11.70
2022-10-31T07:53:18.835Z,11.70
2022-10-31T07:55:46.646Z,11.70
2022-10-31T07:58:16.513Z,11.70
2022-10-31T08:00:46.493Z,11.70
2022-10-31T08:03:17.413Z,11.70
2022-10-31T08:05:46.830Z,11.70
2022-10-31T08:08:15.774Z,11.70
2022-10-31T08:10:44.216Z,11.70
2022-10-31T08:13:13.647Z,11.70
2022-10-31T08:15:42.825Z,11.70
2022-10-31T08:18:15.390Z,11.70
2022-10-31T08:20:44.332Z,11.80
2022-10-31T08:23:13.442Z,11.80
2022-10-31T08:25:42.774Z,11.80
2022-10-31T08:28:12.112Z,11.80
2022-10-31T08:30:41.101Z,11.80
2022-10-31T08:33:12.649Z,11.80
2022-10-31T08:35:42.333Z,11.80
2022-10-31T08:38:11.535Z,11.90
2022-10-31T08:40:40.150Z,11.90
2022-10-31T08:43:10.823Z,11.90
2022-10-31T08:45:38.728Z,11.90
2022-10-31T08:48:08.100Z,11.90
2022-10-31T08:50:37.290Z,12.00
2022-10-31T08:53:08.839Z,12.00
2022-10-31T08:55:37.570Z,12.00
2022-10-31T08:58:06.457Z,12.10
2022-10-31T09:00:34.642Z,12.10
2022-10-31T09:03:04.555Z,12.20
2022-10-31T09:05:33.917Z,12.20
2022-10-31T09:08:04.928Z,12.20
2022-10-31T09:10:36.966Z,12.20
2022-10-31T09:13:07.560Z,12.30
2022-10-31T09:15:36.437Z,12.30
2022-10-31T09:18:04.741Z,12.40
2022-10-31T09:20:33.759Z,12.40
2022-10-31T09:23:02.844Z,12.40
2022-10-31T09:25:31.232Z,12.50
2022-10-31T09:28:01.037Z,12.50
2022-10-31T09:30:30.905Z,12.50
2022-10-31T09:32:58.927Z,12.60
2022-10-31T09:35:27.186Z,12.60
2022-10-31T09:37:58.745Z,12.70
2022-10-31T09:40:33.069Z,12.70
2022-10-31T09:43:12.394Z,12.70
2022-10-31T09:45:47.814Z,12.80
2022-10-31T09:48:26.588Z,12.80
2022-10-31T09:50:58.357Z,12.80
2022-10-31T09:53:32.152Z,12.90
2022-10-31T09:56:02.815Z,13.00
2022-10-31T09:58:38.976Z,12.90
2022-10-31T10:01:08.763Z,13.00
2022-10-31T10:03:44.844Z,13.10
2022-10-31T16:19:54.812Z,15.90
2022-10-31T16:22:26.137Z,15.90
2022-10-31T16:24:59.248Z,15.90
2022-10-31T16:27:30.293Z,15.90
2022-10-31T16:30:02.290Z,15.90
2022-10-31T16:32:33.250Z,15.90
2022-10-31T16:35:25.178Z,15.90
2022-10-31T16:37:53.463Z,15.90
2022-10-31T16:40:22.394Z,15.90
2022-10-31T16:42:50.742Z,15.90
2022-10-31T16:45:21.406Z,15.90
2022-10-31T16:47:50.244Z,15.90
2022-10-31T16:50:22.385Z,15.80
2022-10-31T16:55:45.790Z,15.80
2022-10-31T16:58:19.402Z,15.80
2022-10-31T17:00:47.728Z,15.80
2022-10-31T17:03:15.553Z,15.80
2022-10-31T17:05:44.723Z,15.80
2022-10-31T17:08:13.303Z,15.70
2022-10-31T17:10:42.446Z,15.70
2022-10-31T17:13:15.637Z,15.70
2022-10-31T17:15:46.310Z,15.70
2022-10-31T17:18:15.080Z,15.70
2022-10-31T17:20:45.433Z,15.60
2022-10-31T17:23:14.879Z,15.60
2022-10-31T17:25:42.797Z,15.60
2022-10-31T17:28:13.564Z,15.60
2022-10-31T17:30:42.442Z,15.50
2022-10-31T17:33:12.871Z,15.50
2022-10-31T17:35:40.734Z,15.50
2022-10-31T17:38:10.137Z,15.50
2022-10-31T17:40:39.065Z,15.50
2022-10-31T17:43:07.359Z,15.50
2022-10-31T17:45:35.178Z,15.40
2022-10-31T17:48:03.166Z,15.40
2022-10-31T17:50:30.954Z,15.40
2022-10-31T17:52:59.798Z,15.40
2022-10-31T17:55:32.884Z,15.40
2022-10-31T17:58:05.475Z,15.30
2022-10-31T18:00:33.666Z,15.30
2022-10-31T18:03:03.374Z,15.30
2022-10-31T18:05:31.972Z,15.30
2022-10-31T18:08:03.807Z,15.30
2022-10-31T18:10:33.622Z,15.30
2022-10-31T18:13:01.684Z,15.30
2022-10-31T18:15:29.733Z,15.30
2022-10-31T18:17:57.742Z,15.20
2022-10-31T18:20:25.616Z,15.20
2022-10-31T18:22:53.547Z,15.20
2022-10-31T18:25:21.363Z,15.20
2022-10-31T18:27:50.562Z,15.10
2022-10-31T18:30:19.028Z,15.10
2022-10-31T18:32:49.767Z,15.10
2022-10-31T18:35:17.950Z,15.10
2022-10-31T18:37:46.043Z,15.10
2022-10-31T18:40:14.263Z,15.00
2022-10-31T21:51:59.730Z,13.70
2022-10-31T21:54:30.204Z,13.70
2022-10-31T21:56:59.622Z,13.70
2022-10-31T21:59:27.957Z,13.70
2022-10-31T22:01:58.031Z,13.70
2022-10-31T22:04:26.295Z,13.70
2022-10-31T22:06:54.397Z,13.60
2022-10-31T22:09:24.056Z,13.60
2022-10-31T22:11:51.864Z,13.60
2022-10-31T22:14:19.691Z,13.60
2022-10-31T22:16:47.527Z,13.50
2022-10-31T22:19:15.980Z,13.50
2022-10-31T22:21:48.794Z,13.50
2022-10-31T22:24:17.871Z,13.50
2022-10-31T22:26:50.092Z,13.50
2022-10-31T22:29:19.848Z,13.50
2022-10-31T22:31:51.919Z,13.50
2022-10-31T22:34:23.095Z,13.40
2022-10-31T22:36:50.989Z,13.40
2022-10-31T22:39:18.858Z,13.40
2022-10-31T22:41:48.065Z,13.40
2022-10-31T22:44:15.873Z,13.40
2022-10-31T22:46:43.786Z,13.40
2022-10-31T22:49:14.726Z,13.30
